sensor_id;sensor_type;location;lat;lon;timestamp;temperature;humidity
32698;DHT22;19087;51.062;3.754;2023-02-01T00:01:59;8.70;99.90
32698;DHT22;19087;51.062;3.754;2023-02-01T00:04:25;8.70;99.90
32698;DHT22;19087;51.062;3.754;2023-02-01T00:06:51;8.60;99.90
32698;DHT22;19087;51.062;3.754;2023-02-01T00:09:17;8.60;99.90
32698;DHT22;19087;51.062;3.754;2023-02-01T00:11:43;8.70;99.90
32698;DHT22;19087;51.062;3.754;2023-02-01T00:14:09;8.70;99.90
32698;DHT22;19087;51.062;3.754;2023-02-01T00:16:35;8.60;99.90
32698;DHT22;19087;51.062;3.754;2023-02-01T00:19:14;8.50;99.90
32698;DHT22;19087;51.062;3.754;2023-02-01T00:21:40;8.40;99.90
32698;DHT22;19087;51.062;3.754;2023-02-01T00:24:07;8.30;99.90
32698;DHT22;19087;51.062;3.754;2023-02-01T00:26:42;8.40;99.90
32698;DHT22;19087;51.062;3.754;2023-02-01T00:29:16;8.30;99.90
32698;DHT22;19087;51.062;3.754;2023-02-01T00:31:42;8.30;99.90
32698;DHT22;19087;51.062;3.754;2023-02-01T00:34:14;8.30;99.90
32698;DHT22;19087;51.062;3.754;2023-02-01T00:36:41;8.20;99.90
32698;DHT22;19087;51.062;3.754;2023-02-01T00:39:07;8.10;99.90
32698;DHT22;19087;51.062;3.754;2023-02-01T00:41:32;7.90;99.90
32698;DHT22;19087;51.062;3.754;2023-02-01T00:43:58;7.90;99.90
32698;DHT22;19087;51.062;3.754;2023-02-01T00:46:24;7.80;99.90
32698;DHT22;19087;51.062;3.754;2023-02-01T00:48:51;7.80;99.90
32698;DHT22;19087;51.062;3.754;2023-02-01T00:51:20;7.80;99.90
32698;DHT22;19087;51.062;3.754;2023-02-01T00:53:46;7.70;99.90
32698;DHT22;19087;51.062;3.754;2023-02-01T00:56:13;7.70;99.90
32698;DHT22;19087;51.062;3.754;2023-02-01T00:58:40;7.70;99.90
32698;DHT22;19087;51.062;3.754;2023-02-01T01:03:44;7.60;99.90
32698;DHT22;19087;51.062;3.754;2023-02-01T01:06:15;7.60;99.90
32698;DHT22;19087;51.062;3.754;2023-02-01T01:08:41;7.50;99.90
32698;DHT22;19087;51.062;3.754;2023-02-01T01:11:10;7.50;99.90
32698;DHT22;19087;51.062;3.754;2023-02-01T01:13:38;7.40;99.90
32698;DHT22;19087;51.062;3.754;2023-02-01T01:16:10;7.20;99.90
32698;DHT22;19087;51.062;3.754;2023-02-01T01:18:36;7.20;99.90
32698;DHT22;19087;51.062;3.754;2023-02-01T01:21:05;7.20;99.90
32698;DHT22;19087;51.062;3.754;2023-02-01T01:23:33;7.20;99.90
32698;DHT22;19087;51.062;3.754;2023-02-01T01:25:59;7.10;99.90
32698;DHT22;19087;51.062;3.754;2023-02-01T01:28:25;7.20;99.90
32698;DHT22;19087;51.062;3.754;2023-02-01T01:30:51;7.20;99.90
32698;DHT22;19087;51.062;3.754;2023-02-01T01:33:17;7.30;99.90
32698;DHT22;19087;51.062;3.754;2023-02-01T01:35:43;7.40;99.90
32698;DHT22;19087;51.062;3.754;2023-02-01T01:38:11;7.30;99.90
32698;DHT22;19087;51.062;3.754;2023-02-01T01:40:37;7.20;99.90
32698;DHT22;19087;51.062;3.754;2023-02-01T01:43:03;7.40;99.90
32698;DHT22;19087;51.062;3.754;2023-02-01T01:45:31;7.20;99.90
32698;DHT22;19087;51.062;3.754;2023-02-01T01:48:02;7.30;99.90
32698;DHT22;19087;51.062;3.754;2023-02-01T01:50:33;7.30;99.90
32698;DHT22;19087;51.062;3.754;2023-02-01T01:53:02;7.30;99.90
32698;DHT22;19087;51.062;3.754;2023-02-01T01:55:31;7.30;99.90
32698;DHT22;19087;51.062;3.754;2023-02-01T01:58:02;7.30;99.90
32698;DHT22;19087;51.062;3.754;2023-02-01T02:00:29;7.10;99.90
32698;DHT22;19087;51.062;3.754;2023-02-01T02:03:00;7.20;99.90
32698;DHT22;19087;51.062;3.754;2023-02-01T02:05:26;7.20;99.90
32698;DHT22;19087;51.062;3.754;2023-02-01T02:07:57;7.10;99.90
32698;DHT22;19087;51.062;3.754;2023-02-01T02:10:23;7.10;99.90
32698;DHT22;19087;51.062;3.754;2023-02-01T02:13:09;7.10;99.90
32698;DHT22;19087;51.062;3.754;2023-02-01T02:15:39;7.00;99.90
32698;DHT22;19087;51.062;3.754;2023-02-01T02:18:31;6.90;99.90
32698;DHT22;19087;51.062;3.754;2023-02-01T02:23:53;6.80;99.90
32698;DHT22;19087;51.062;3.754;2023-02-01T02:26:52;6.80;99.90
32698;DHT22;19087;51.062;3.754;2023-02-01T02:35:24;6.70;99.90
32698;DHT22;19087;51.062;3.754;2023-02-01T02:38:12;6.70;99.90
32698;DHT22;19087;51.062;3.754;2023-02-01T02:40:51;6.70;99.90
32698;DHT22;19087;51.062;3.754;2023-02-01T02:43:25;6.70;99.90
32698;DHT22;19087;51.062;3.754;2023-02-01T02:46:22;6.90;99.90
32698;DHT22;19087;51.062;3.754;2023-02-01T02:51:52;6.80;99.90
32698;DHT22;19087;51.062;3.754;2023-02-01T02:54:43;6.70;99.90
32698;DHT22;19087;51.062;3.754;2023-02-01T02:57:29;6.80;99.90
32698;DHT22;19087;51.062;3.754;2023-02-01T03:00:21;6.80;99.90
32698;DHT22;19087;51.062;3.754;2023-02-01T03:03:07;6.60;99.90
32698;DHT22;19087;51.062;3.754;2023-02-01T03:05:52;6.80;99.90
32698;DHT22;19087;51.062;3.754;2023-02-01T03:08:31;6.80;99.90
32698;DHT22;19087;51.062;3.754;2023-02-01T03:11:14;6.70;99.90
32698;DHT22;19087;51.062;3.754;2023-02-01T03:13:59;6.80;99.90
32698;DHT22;19087;51.062;3.754;2023-02-01T03:21:53;6.90;99.90
32698;DHT22;19087;51.062;3.754;2023-02-01T03:27:09;6.90;99.90
32698;DHT22;19087;51.062;3.754;2023-02-01T03:30:09;6.80;99.90
32698;DHT22;19087;51.062;3.754;2023-02-01T03:32:38;6.80;99.90
32698;DHT22;19087;51.062;3.754;2023-02-01T03:35:39;7.00;99.90
32698;DHT22;19087;51.062;3.754;2023-02-01T03:41:17;7.10;99.90
32698;DHT22;19087;51.062;3.754;2023-02-01T03:49:41;7.00;99.90
32698;DHT22;19087;51.062;3.754;2023-02-01T03:52:12;7.10;99.90
32698;DHT22;19087;51.062;3.754;2023-02-01T03:54:39;7.10;99.90
32698;DHT22;19087;51.062;3.754;2023-02-01T03:57:11;7.10;99.90
32698;DHT22;19087;51.062;3.754;2023-02-01T03:59:41;6.90;99.90
32698;DHT22;19087;51.062;3.754;2023-02-01T04:02:11;6.80;99.90
32698;DHT22;19087;51.062;3.754;2023-02-01T04:04:39;7.00;99.90
32698;DHT22;19087;51.062;3.754;2023-02-01T04:07:04;6.90;99.90
32698;DHT22;19087;51.062;3.754;2023-02-01T04:09:30;6.90;99.90
32698;DHT22;19087;51.062;3.754;2023-02-01T04:11:56;6.80;99.90
32698;DHT22;19087;51.062;3.754;2023-02-01T04:14:21;6.80;99.90
32698;DHT22;19087;51.062;3.754;2023-02-01T04:16:47;6.80;99.90
32698;DHT22;19087;51.062;3.754;2023-02-01T04:19:15;6.80;99.90
32698;DHT22;19087;51.062;3.754;2023-02-01T04:21:41;6.80;99.90
32698;DHT22;19087;51.062;3.754;2023-02-01T04:24:09;6.80;99.90
32698;DHT22;19087;51.062;3.754;2023-02-01T04:26:34;6.60;99.90
32698;DHT22;19087;51.062;3.754;2023-02-01T04:29:00;6.60;99.90
32698;DHT22;19087;51.062;3.754;2023-02-01T04:31:27;6.70;99.90
32698;DHT22;19087;51.062;3.754;2023-02-01T04:33:55;6.60;99.90
32698;DHT22;19087;51.062;3.754;2023-02-01T04:36:22;6.70;99.90
32698;DHT22;19087;51.062;3.754;2023-02-01T04:38:48;6.50;99.90
32698;DHT22;19087;51.062;3.754;2023-02-01T04:41:14;6.60;99.90
32698;DHT22;19087;51.062;3.754;2023-02-01T04:43:47;6.70;99.90
32698;DHT22;19087;51.062;3.754;2023-02-01T04:46:13;6.60;99.90
32698;DHT22;19087;51.062;3.754;2023-02-01T04:48:39;6.70;99.90
32698;DHT22;19087;51.062;3.754;2023-02-01T04:51:05;6.60;99.90
32698;DHT22;19087;51.062;3.754;2023-02-01T04:53:30;6.60;99.90
32698;DHT22;19087;51.062;3.754;2023-02-01T04:55:56;6.50;99.90
32698;DHT22;19087;51.062;3.754;2023-02-01T04:58:22;6.60;99.90
32698;DHT22;19087;51.062;3.754;2023-02-01T05:00:48;6.50;99.90
32698;DHT22;19087;51.062;3.754;2023-02-01T05:03:15;6.60;99.90
32698;DHT22;19087;51.062;3.754;2023-02-01T05:05:41;6.50;99.90
32698;DHT22;19087;51.062;3.754;2023-02-01T05:08:07;6.60;99.90
32698;DHT22;19087;51.062;3.754;2023-02-01T05:10:32;6.50;99.90
32698;DHT22;19087;51.062;3.754;2023-02-01T05:12:58;6.30;99.90
32698;DHT22;19087;51.062;3.754;2023-02-01T05:15:42;6.40;99.90
32698;DHT22;19087;51.062;3.754;2023-02-01T05:18:08;6.40;99.90
32698;DHT22;19087;51.062;3.754;2023-02-01T05:20:34;6.50;99.90
32698;DHT22;19087;51.062;3.754;2023-02-01T05:23:00;6.60;99.90
32698;DHT22;19087;51.062;3.754;2023-02-01T05:25:26;6.60;99.90
32698;DHT22;19087;51.062;3.754;2023-02-01T05:27:53;6.60;99.90
32698;DHT22;19087;51.062;3.754;2023-02-01T05:30:18;6.60;99.90
32698;DHT22;19087;51.062;3.754;2023-02-01T05:32:44;6.50;99.90
32698;DHT22;19087;51.062;3.754;2023-02-01T05:35:10;6.50;99.90
32698;DHT22;19087;51.062;3.754;2023-02-01T05:37:36;6.60;99.90
32698;DHT22;19087;51.062;3.754;2023-02-01T05:40:01;6.50;99.90
32698;DHT22;19087;51.062;3.754;2023-02-01T05:42:27;6.40;99.90
32698;DHT22;19087;51.062;3.754;2023-02-01T05:44:53;6.30;99.90
32698;DHT22;19087;51.062;3.754;2023-02-01T05:47:19;6.30;99.90
32698;DHT22;19087;51.062;3.754;2023-02-01T05:49:46;6.30;99.90
32698;DHT22;19087;51.062;3.754;2023-02-01T05:52:11;6.30;99.90
32698;DHT22;19087;51.062;3.754;2023-02-01T05:54:37;6.40;99.90
32698;DHT22;19087;51.062;3.754;2023-02-01T05:57:05;6.50;99.90
32698;DHT22;19087;51.062;3.754;2023-02-01T05:59:31;6.60;99.90
32698;DHT22;19087;51.062;3.754;2023-02-01T06:01:56;6.50;99.90
32698;DHT22;19087;51.062;3.754;2023-02-01T06:04:22;6.40;99.90
32698;DHT22;19087;51.062;3.754;2023-02-01T06:06:48;6.40;99.90
32698;DHT22;19087;51.062;3.754;2023-02-01T06:09:15;6.50;99.90
32698;DHT22;19087;51.062;3.754;2023-02-01T06:11:41;6.50;99.90
32698;DHT22;19087;51.062;3.754;2023-02-01T06:14:07;6.40;99.90
32698;DHT22;19087;51.062;3.754;2023-02-01T06:16:33;6.40;99.90
32698;DHT22;19087;51.062;3.754;2023-02-01T06:19:00;6.50;99.90
32698;DHT22;19087;51.062;3.754;2023-02-01T06:21:26;6.60;99.90
32698;DHT22;19087;51.062;3.754;2023-02-01T06:23:52;6.50;99.90
32698;DHT22;19087;51.062;3.754;2023-02-01T06:26:18;6.40;99.90
32698;DHT22;19087;51.062;3.754;2023-02-01T06:28:44;6.30;99.90
32698;DHT22;19087;51.062;3.754;2023-02-01T06:31:11;6.20;99.90
32698;DHT22;19087;51.062;3.754;2023-02-01T06:33:37;6.10;99.90
32698;DHT22;19087;51.062;3.754;2023-02-01T06:36:05;6.20;99.90
32698;DHT22;19087;51.062;3.754;2023-02-01T06:38:32;6.30;99.90
32698;DHT22;19087;51.062;3.754;2023-02-01T06:41:00;6.30;99.90
32698;DHT22;19087;51.062;3.754;2023-02-01T06:43:26;6.30;99.90
32698;DHT22;19087;51.062;3.754;2023-02-01T06:45:52;6.10;99.90
32698;DHT22;19087;51.062;3.754;2023-02-01T06:48:18;6.30;99.90
32698;DHT22;19087;51.062;3.754;2023-02-01T06:50:44;6.20;99.90
32698;DHT22;19087;51.062;3.754;2023-02-01T06:53:10;6.30;99.90
32698;DHT22;19087;51.062;3.754;2023-02-01T06:55:36;6.30;99.90
32698;DHT22;19087;51.062;3.754;2023-02-01T06:58:02;6.30;99.90
32698;DHT22;19087;51.062;3.754;2023-02-01T07:00:28;6.20;99.90
32698;DHT22;19087;51.062;3.754;2023-02-01T07:02:54;6.10;99.90
32698;DHT22;19087;51.062;3.754;2023-02-01T07:05:20;5.90;99.90
32698;DHT22;19087;51.062;3.754;2023-02-01T07:07:46;6.10;99.90
32698;DHT22;19087;51.062;3.754;2023-02-01T07:10:12;6.20;99.90
32698;DHT22;19087;51.062;3.754;2023-02-01T07:12:38;6.20;99.90
32698;DHT22;19087;51.062;3.754;2023-02-01T07:15:05;6.20;99.90
32698;DHT22;19087;51.062;3.754;2023-02-01T07:17:31;6.20;99.90
32698;DHT22;19087;51.062;3.754;2023-02-01T07:19:56;6.20;99.90
32698;DHT22;19087;51.062;3.754;2023-02-01T07:22:25;6.20;99.90
32698;DHT22;19087;51.062;3.754;2023-02-01T07:24:50;6.20;99.90
32698;DHT22;19087;51.062;3.754;2023-02-01T07:27:16;6.20;99.90
32698;DHT22;19087;51.062;3.754;2023-02-01T07:29:42;6.20;99.90
32698;DHT22;19087;51.062;3.754;2023-02-01T07:32:07;6.40;99.90
32698;DHT22;19087;51.062;3.754;2023-02-01T07:34:33;6.30;99.90
32698;DHT22;19087;51.062;3.754;2023-02-01T07:36:59;6.40;99.90
32698;DHT22;19087;51.062;3.754;2023-02-01T07:39:24;6.40;99.90
32698;DHT22;19087;51.062;3.754;2023-02-01T07:41:53;6.50;99.90
32698;DHT22;19087;51.062;3.754;2023-02-01T07:44:19;6.50;99.90
32698;DHT22;19087;51.062;3.754;2023-02-01T07:46:48;6.60;99.90
32698;DHT22;19087;51.062;3.754;2023-02-01T07:49:14;6.60;99.90
32698;DHT22;19087;51.062;3.754;2023-02-01T07:51:40;6.70;99.90
32698;DHT22;19087;51.062;3.754;2023-02-01T07:54:05;6.80;99.90
32698;DHT22;19087;51.062;3.754;2023-02-01T07:56:31;6.90;99.90
32698;DHT22;19087;51.062;3.754;2023-02-01T07:59:03;6.80;99.90
32698;DHT22;19087;51.062;3.754;2023-02-01T08:01:29;6.80;99.90
32698;DHT22;19087;51.062;3.754;2023-02-01T08:03:56;6.80;99.90
32698;DHT22;19087;51.062;3.754;2023-02-01T08:06:23;6.80;99.90
32698;DHT22;19087;51.062;3.754;2023-02-01T08:08:50;6.80;99.90
32698;DHT22;19087;51.062;3.754;2023-02-01T08:11:17;6.90;99.90
32698;DHT22;19087;51.062;3.754;2023-02-01T08:13:44;6.90;99.90
32698;DHT22;19087;51.062;3.754;2023-02-01T08:16:13;7.10;99.90
32698;DHT22;19087;51.062;3.754;2023-02-01T08:18:39;7.10;99.90
32698;DHT22;19087;51.062;3.754;2023-02-01T08:21:10;7.20;99.90
32698;DHT22;19087;51.062;3.754;2023-02-01T08:23:37;7.30;99.90
32698;DHT22;19087;51.062;3.754;2023-02-01T08:26:12;7.30;99.90
32698;DHT22;19087;51.062;3.754;2023-02-01T08:28:39;7.30;99.90
32698;DHT22;19087;51.062;3.754;2023-02-01T08:31:11;7.40;99.90
32698;DHT22;19087;51.062;3.754;2023-02-01T08:33:37;7.40;99.90
32698;DHT22;19087;51.062;3.754;2023-02-01T08:36:07;7.40;99.90
32698;DHT22;19087;51.062;3.754;2023-02-01T08:38:35;7.40;99.90
32698;DHT22;19087;51.062;3.754;2023-02-01T08:41:15;7.40;99.90
32698;DHT22;19087;51.062;3.754;2023-02-01T08:43:41;7.40;99.90
32698;DHT22;19087;51.062;3.754;2023-02-01T08:46:07;7.40;99.90
32698;DHT22;19087;51.062;3.754;2023-02-01T08:48:35;7.40;99.90
32698;DHT22;19087;51.062;3.754;2023-02-01T08:51:06;7.40;99.90
32698;DHT22;19087;51.062;3.754;2023-02-01T08:53:32;7.60;99.90
32698;DHT22;19087;51.062;3.754;2023-02-01T08:55:58;7.90;99.90
32698;DHT22;19087;51.062;3.754;2023-02-01T08:58:24;7.90;99.90
32698;DHT22;19087;51.062;3.754;2023-02-01T09:00:50;8.10;99.90
32698;DHT22;19087;51.062;3.754;2023-02-01T09:03:16;8.10;99.90
32698;DHT22;19087;51.062;3.754;2023-02-01T09:05:42;8.40;99.90
32698;DHT22;19087;51.062;3.754;2023-02-01T09:08:08;8.40;99.90
32698;DHT22;19087;51.062;3.754;2023-02-01T09:10:35;8.50;99.90
32698;DHT22;19087;51.062;3.754;2023-02-01T09:13:01;8.60;99.90
32698;DHT22;19087;51.062;3.754;2023-02-01T09:15:27;8.50;99.90
32698;DHT22;19087;51.062;3.754;2023-02-01T09:17:52;8.60;99.90
32698;DHT22;19087;51.062;3.754;2023-02-01T09:20:18;8.70;99.90
32698;DHT22;19087;51.062;3.754;2023-02-01T09:22:46;8.80;99.90
32698;DHT22;19087;51.062;3.754;2023-02-01T09:25:11;8.90;99.90
32698;DHT22;19087;51.062;3.754;2023-02-01T09:27:37;9.00;99.90
32698;DHT22;19087;51.062;3.754;2023-02-01T09:30:03;9.00;99.90
32698;DHT22;19087;51.062;3.754;2023-02-01T09:32:30;9.00;99.90
32698;DHT22;19087;51.062;3.754;2023-02-01T09:34:56;9.20;99.90
32698;DHT22;19087;51.062;3.754;2023-02-01T09:37:22;9.30;99.90
32698;DHT22;19087;51.062;3.754;2023-02-01T09:39:47;9.20;99.90
32698;DHT22;19087;51.062;3.754;2023-02-01T09:48:01;9.00;99.90
32698;DHT22;19087;51.062;3.754;2023-02-01T09:50:38;8.90;99.90
32698;DHT22;19087;51.062;3.754;2023-02-01T09:53:15;9.20;99.90
32698;DHT22;19087;51.062;3.754;2023-02-01T09:55:50;9.20;99.90
32698;DHT22;19087;51.062;3.754;2023-02-01T09:58:25;9.30;99.90
32698;DHT22;19087;51.062;3.754;2023-02-01T10:00:53;9.40;99.90
32698;DHT22;19087;51.062;3.754;2023-02-01T10:03:21;9.40;99.90
32698;DHT22;19087;51.062;3.754;2023-02-01T10:14:45;9.50;99.90
32698;DHT22;19087;51.062;3.754;2023-02-01T10:22:46;9.40;99.90
32698;DHT22;19087;51.062;3.754;2023-02-01T10:25:23;9.40;99.90
32698;DHT22;19087;51.062;3.754;2023-02-01T10:27:51;9.50;99.90
32698;DHT22;19087;51.062;3.754;2023-02-01T10:30:21;9.50;99.90
32698;DHT22;19087;51.062;3.754;2023-02-01T10:32:49;9.60;99.90
32698;DHT22;19087;51.062;3.754;2023-02-01T10:35:37;9.60;99.90
32698;DHT22;19087;51.062;3.754;2023-02-01T10:38:11;9.60;99.90
32698;DHT22;19087;51.062;3.754;2023-02-01T10:40:39;9.70;99.90
32698;DHT22;19087;51.062;3.754;2023-02-01T10:43:09;9.80;99.90
32698;DHT22;19087;51.062;3.754;2023-02-01T10:45:37;9.90;99.90
32698;DHT22;19087;51.062;3.754;2023-02-01T10:48:05;9.80;99.90
32698;DHT22;19087;51.062;3.754;2023-02-01T10:53:15;9.90;99.90
32698;DHT22;19087;51.062;3.754;2023-02-01T10:55:46;10.00;99.90
32698;DHT22;19087;51.062;3.754;2023-02-01T11:00:53;10.20;99.90
32698;DHT22;19087;51.062;3.754;2023-02-01T11:03:33;10.20;99.90
32698;DHT22;19087;51.062;3.754;2023-02-01T11:06:01;10.20;99.90
32698;DHT22;19087;51.062;3.754;2023-02-01T11:08:28;10.30;99.90
32698;DHT22;19087;51.062;3.754;2023-02-01T11:11:00;10.40;99.90
32698;DHT22;19087;51.062;3.754;2023-02-01T11:13:32;10.40;99.90
32698;DHT22;19087;51.062;3.754;2023-02-01T11:16:03;10.50;99.90
32698;DHT22;19087;51.062;3.754;2023-02-01T11:18:32;10.70;99.90
32698;DHT22;19087;51.062;3.754;2023-02-01T11:21:01;10.80;99.90
32698;DHT22;19087;51.062;3.754;2023-02-01T11:23:28;11.10;99.90
32698;DHT22;19087;51.062;3.754;2023-02-01T11:26:00;11.10;99.90
32698;DHT22;19087;51.062;3.754;2023-02-01T11:28:31;11.10;99.90
32698;DHT22;19087;51.062;3.754;2023-02-01T11:31:00;11.10;99.90
32698;DHT22;19087;51.062;3.754;2023-02-01T11:33:33;11.10;99.90
32698;DHT22;19087;51.062;3.754;2023-02-01T11:36:22;11.10;99.90
32698;DHT22;19087;51.062;3.754;2023-02-01T11:39:08;11.10;99.90
32698;DHT22;19087;51.062;3.754;2023-02-01T11:42:03;11.30;99.90
32698;DHT22;19087;51.062;3.754;2023-02-01T11:44:37;11.40;99.90
32698;DHT22;19087;51.062;3.754;2023-02-01T11:47:31;11.40;99.90
32698;DHT22;19087;51.062;3.754;2023-02-01T11:50:14;11.30;99.90
32698;DHT22;19087;51.062;3.754;2023-02-01T11:52:57;11.20;99.90
32698;DHT22;19087;51.062;3.754;2023-02-01T11:56:01;11.10;99.90
32698;DHT22;19087;51.062;3.754;2023-02-01T11:59:04;11.00;99.90
32698;DHT22;19087;51.062;3.754;2023-02-01T12:07:21;10.90;99.90
32698;DHT22;19087;51.062;3.754;2023-02-01T12:12:58;11.00;99.90
32698;DHT22;19087;51.062;3.754;2023-02-01T12:18:14;11.20;99.90
32698;DHT22;19087;51.062;3.754;2023-02-01T12:30:07;11.30;99.90
32698;DHT22;19087;51.062;3.754;2023-02-01T12:38:55;11.70;99.90
32698;DHT22;19087;51.062;3.754;2023-02-01T12:44:04;11.70;99.90
32698;DHT22;19087;51.062;3.754;2023-02-01T12:46:53;11.70;99.90
32698;DHT22;19087;51.062;3.754;2023-02-01T12:51:54;12.00;99.90
32698;DHT22;19087;51.062;3.754;2023-02-01T12:55:06;11.90;99.90
32698;DHT22;19087;51.062;3.754;2023-02-01T12:57:30;11.90;99.90
32698;DHT22;19087;51.062;3.754;2023-02-01T13:05:59;12.10;99.90
32698;DHT22;19087;51.062;3.754;2023-02-01T13:08:51;12.10;99.90
32698;DHT22;19087;51.062;3.754;2023-02-01T13:11:33;12.10;99.90
32698;DHT22;19087;51.062;3.754;2023-02-01T13:16:56;12.10;99.90
32698;DHT22;19087;51.062;3.754;2023-02-01T13:22:20;12.30;99.90
32698;DHT22;19087;51.062;3.754;2023-02-01T13:27:35;12.00;99.90
32698;DHT22;19087;51.062;3.754;2023-02-01T13:30:16;12.00;99.90
32698;DHT22;19087;51.062;3.754;2023-02-01T13:41:40;12.70;99.90
32698;DHT22;19087;51.062;3.754;2023-02-01T13:44:25;12.70;99.90
32698;DHT22;19087;51.062;3.754;2023-02-01T13:46:56;12.40;99.90
32698;DHT22;19087;51.062;3.754;2023-02-01T13:49:28;12.40;99.90
32698;DHT22;19087;51.062;3.754;2023-02-01T13:51:56;12.20;99.90
32698;DHT22;19087;51.062;3.754;2023-02-01T13:54:38;12.40;99.90
32698;DHT22;19087;51.062;3.754;2023-02-01T13:57:39;12.40;99.90
32698;DHT22;19087;51.062;3.754;2023-02-01T14:00:32;12.30;99.90
32698;DHT22;19087;51.062;3.754;2023-02-01T14:13:24;11.90;99.90
32698;DHT22;19087;51.062;3.754;2023-02-01T14:16:15;12.00;99.90
32698;DHT22;19087;51.062;3.754;2023-02-01T14:21:20;11.70;99.90
32698;DHT22;19087;51.062;3.754;2023-02-01T14:29:02;11.50;99.90
32698;DHT22;19087;51.062;3.754;2023-02-01T14:31:40;11.50;99.90
32698;DHT22;19087;51.062;3.754;2023-02-01T14:34:31;11.50;99.90
32698;DHT22;19087;51.062;3.754;2023-02-01T14:37:02;11.30;99.90
32698;DHT22;19087;51.062;3.754;2023-02-01T14:39:37;11.40;99.90
32698;DHT22;19087;51.062;3.754;2023-02-01T14:43:13;11.30;99.90
32698;DHT22;19087;51.062;3.754;2023-02-01T14:53:14;11.10;99.90
32698;DHT22;19087;51.062;3.754;2023-02-01T14:58:40;11.10;99.90
32698;DHT22;19087;51.062;3.754;2023-02-01T15:01:27;11.00;99.90
32698;DHT22;19087;51.062;3.754;2023-02-01T15:04:14;10.90;99.90
32698;DHT22;19087;51.062;3.754;2023-02-01T15:06:54;10.90;99.90
32698;DHT22;19087;51.062;3.754;2023-02-01T15:09:31;11.00;99.90
32698;DHT22;19087;51.062;3.754;2023-02-01T15:12:16;10.90;99.90
32698;DHT22;19087;51.062;3.754;2023-02-01T15:15:12;10.80;99.90
32698;DHT22;19087;51.062;3.754;2023-02-01T15:17:39;10.90;99.90
32698;DHT22;19087;51.062;3.754;2023-02-01T15:20:23;10.90;99.90
32698;DHT22;19087;51.062;3.754;2023-02-01T15:23:01;11.00;99.90
32698;DHT22;19087;51.062;3.754;2023-02-01T15:25:30;10.90;99.90
32698;DHT22;19087;51.062;3.754;2023-02-01T15:27:56;10.80;99.90
32698;DHT22;19087;51.062;3.754;2023-02-01T15:30:25;10.80;99.90
32698;DHT22;19087;51.062;3.754;2023-02-01T15:32:52;10.60;99.90
32698;DHT22;19087;51.062;3.754;2023-02-01T15:38:25;10.50;99.90
32698;DHT22;19087;51.062;3.754;2023-02-01T15:43:30;10.60;99.90
32698;DHT22;19087;51.062;3.754;2023-02-01T15:46:02;10.60;99.90
32698;DHT22;19087;51.062;3.754;2023-02-01T15:48:39;10.60;99.90
32698;DHT22;19087;51.062;3.754;2023-02-01T15:51:06;10.60;99.90
32698;DHT22;19087;51.062;3.754;2023-02-01T15:53:36;10.60;99.90
32698;DHT22;19087;51.062;3.754;2023-02-01T15:56:04;10.60;99.90
32698;DHT22;19087;51.062;3.754;2023-02-01T15:58:30;10.50;99.90
32698;DHT22;19087;51.062;3.754;2023-02-01T16:01:03;10.40;99.90
32698;DHT22;19087;51.062;3.754;2023-02-01T16:03:44;10.40;99.90
32698;DHT22;19087;51.062;3.754;2023-02-01T16:08:37;10.40;99.90
32698;DHT22;19087;51.062;3.754;2023-02-01T16:11:40;10.50;99.90
32698;DHT22;19087;51.062;3.754;2023-02-01T16:14:09;10.50;99.90
32698;DHT22;19087;51.062;3.754;2023-02-01T16:16:35;10.40;99.90
32698;DHT22;19087;51.062;3.754;2023-02-01T16:19:01;10.40;99.90
32698;DHT22;19087;51.062;3.754;2023-02-01T16:21:27;10.30;99.90
32698;DHT22;19087;51.062;3.754;2023-02-01T16:23:53;10.30;99.90
32698;DHT22;19087;51.062;3.754;2023-02-01T16:26:19;10.30;99.90
32698;DHT22;19087;51.062;3.754;2023-02-01T16:28:45;10.20;99.90
32698;DHT22;19087;51.062;3.754;2023-02-01T16:31:16;10.30;99.90
32698;DHT22;19087;51.062;3.754;2023-02-01T16:33:48;10.30;99.90
32698;DHT22;19087;51.062;3.754;2023-02-01T16:36:14;10.30;99.90
32698;DHT22;19087;51.062;3.754;2023-02-01T16:38:40;10.30;99.90
32698;DHT22;19087;51.062;3.754;2023-02-01T16:41:08;10.20;99.90
32698;DHT22;19087;51.062;3.754;2023-02-01T16:43:35;10.20;99.90
32698;DHT22;19087;51.062;3.754;2023-02-01T16:46:01;10.20;99.90
32698;DHT22;19087;51.062;3.754;2023-02-01T16:48:31;10.10;99.90
32698;DHT22;19087;51.062;3.754;2023-02-01T16:51:02;10.20;99.90
32698;DHT22;19087;51.062;3.754;2023-02-01T16:53:29;10.20;99.90
32698;DHT22;19087;51.062;3.754;2023-02-01T16:55:56;10.10;99.90
32698;DHT22;19087;51.062;3.754;2023-02-01T16:58:26;10.10;99.90
32698;DHT22;19087;51.062;3.754;2023-02-01T17:00:52;10.00;99.90
32698;DHT22;19087;51.062;3.754;2023-02-01T17:03:18;10.10;99.90
32698;DHT22;19087;51.062;3.754;2023-02-01T17:05:48;10.20;99.90
32698;DHT22;19087;51.062;3.754;2023-02-01T17:08:27;10.10;99.90
32698;DHT22;19087;51.062;3.754;2023-02-01T17:10:53;10.10;99.90
32698;DHT22;19087;51.062;3.754;2023-02-01T17:13:19;10.20;99.90
32698;DHT22;19087;51.062;3.754;2023-02-01T17:15:54;10.20;99.90
32698;DHT22;19087;51.062;3.754;2023-02-01T17:18:21;10.20;99.90
32698;DHT22;19087;51.062;3.754;2023-02-01T17:20:47;10.20;99.90
32698;DHT22;19087;51.062;3.754;2023-02-01T17:23:15;10.10;99.90
32698;DHT22;19087;51.062;3.754;2023-02-01T17:25:41;10.00;99.90
32698;DHT22;19087;51.062;3.754;2023-02-01T17:28:07;10.10;99.90
32698;DHT22;19087;51.062;3.754;2023-02-01T17:30:34;10.20;99.90
32698;DHT22;19087;51.062;3.754;2023-02-01T17:32:59;10.10;99.90
32698;DHT22;19087;51.062;3.754;2023-02-01T17:35:27;10.00;99.90
32698;DHT22;19087;51.062;3.754;2023-02-01T17:37:53;10.00;99.90
32698;DHT22;19087;51.062;3.754;2023-02-01T17:40:19;10.00;99.90
32698;DHT22;19087;51.062;3.754;2023-02-01T17:42:45;10.10;99.90
32698;DHT22;19087;51.062;3.754;2023-02-01T17:45:34;10.10;99.90
32698;DHT22;19087;51.062;3.754;2023-02-01T17:48:06;10.00;99.90
32698;DHT22;19087;51.062;3.754;2023-02-01T17:50:35;9.90;99.90
32698;DHT22;19087;51.062;3.754;2023-02-01T17:53:03;9.80;99.90
32698;DHT22;19087;51.062;3.754;2023-02-01T17:55:32;9.80;99.90
32698;DHT22;19087;51.062;3.754;2023-02-01T17:57:59;9.80;99.90
32698;DHT22;19087;51.062;3.754;2023-02-01T18:00:24;9.90;99.90
32698;DHT22;19087;51.062;3.754;2023-02-01T18:02:51;9.90;99.90
32698;DHT22;19087;51.062;3.754;2023-02-01T18:05:36;9.80;99.90
32698;DHT22;19087;51.062;3.754;2023-02-01T18:08:03;9.90;99.90
32698;DHT22;19087;51.062;3.754;2023-02-01T18:10:28;9.80;99.90
32698;DHT22;19087;51.062;3.754;2023-02-01T18:12:54;9.80;99.90
32698;DHT22;19087;51.062;3.754;2023-02-01T18:15:22;9.80;99.90
32698;DHT22;19087;51.062;3.754;2023-02-01T18:17:48;9.80;99.90
32698;DHT22;19087;51.062;3.754;2023-02-01T18:20:16;9.90;99.90
32698;DHT22;19087;51.062;3.754;2023-02-01T18:22:43;10.10;99.90
32698;DHT22;19087;51.062;3.754;2023-02-01T18:25:14;10.10;99.90
32698;DHT22;19087;51.062;3.754;2023-02-01T18:27:41;10.20;99.90
32698;DHT22;19087;51.062;3.754;2023-02-01T18:30:08;10.20;99.90
32698;DHT22;19087;51.062;3.754;2023-02-01T18:32:34;10.10;99.90